Time;durP1;ratioP1;P1;durP2;ratioP2;P2;SDS_P1;SDS_P2;PMS_P1;PMS_P2;Temp;Humidity;BMP_temperature;BMP_pressure;BME280_temperature;BME280_humidity;BME280_pressure;Samples;Min_cycle;Max_cycle;Signal;HPM_P1;HPM_P2
2024/01/25 00:01:11;;;;;;;0.40;0.40;;;;;;;4.86;100.00;99192.53;5044833;28;20028;-64
2024/01/25 00:03:37;;;;;;;0.40;0.40;;;;;;;4.81;100.00;99192.53;5044903;28;20026;-63
2024/01/25 00:06:02;;;;;;;0.40;0.40;;;;;;;4.78;100.00;99202.81;5044827;28;20021;-64
2024/01/25 00:08:28;;;;;;;0.38;0.38;;;;;;;4.77;100.00;99212.28;5027234;28;20515;-64
2024/01/25 00:10:53;;;;;;;0.40;0.40;;;;;;;4.78;100.00;99218.25;5026919;28;20085;-64
2024/01/25 00:13:19;;;;;;;0.40;0.40;;;;;;;4.75;100.00;99223.41;5043989;28;20025;-64
2024/01/25 00:15:44;;;;;;;0.40;0.40;;;;;;;4.70;100.00;99231.13;5044496;28;20025;-64
2024/01/25 00:18:09;;;;;;;0.40;0.40;;;;;;;4.69;100.00;99240.59;5044781;28;20032;-63
2024/01/25 00:20:35;;;;;;;0.40;0.40;;;;;;;4.67;100.00;99242.31;5044797;28;20039;-64
2024/01/25 00:23:00;;;;;;;0.43;0.43;;;;;;;4.61;100.00;99239.75;5044459;28;20029;-64
2024/01/25 00:25:26;;;;;;;0.40;0.40;;;;;;;4.62;100.00;99249.16;5044645;28;20487;-65
2024/01/25 00:27:52;;;;;;;0.40;0.40;;;;;;;4.62;100.00;99248.34;5054302;23;20049;-64
2024/01/25 00:30:17;;;;;;;0.50;0.50;;;;;;;4.63;100.00;99258.59;5044782;28;20029;-65
2024/01/25 00:32:42;;;;;;;0.40;0.40;;;;;;;4.65;100.00;99268.88;5044378;28;20021;-65
2024/01/25 00:35:10;;;;;;;0.50;0.50;;;;;;;4.65;100.00;99274.88;5026770;28;20025;-65
2024/01/25 00:37:39;;;;;;;0.40;0.40;;;;;;;4.65;100.00;99263.75;5026932;28;20029;-65
2024/01/25 00:42:40;;;;;;;0.40;0.40;;;;;;;4.66;100.00;99275.72;5042488;28;20052;-64
2024/01/25 00:45:07;;;;;;;0.50;0.50;;;;;;;4.74;100.00;99291.13;5044735;28;20022;-63
2024/01/25 00:47:32;;;;;;;0.40;0.40;;;;;;;4.74;100.00;99283.41;5044045;28;20026;-64
2024/01/25 00:49:58;;;;;;;0.40;0.40;;;;;;;4.63;100.00;99271.47;5051049;23;20107;-73
2024/01/25 00:52:23;;;;;;;0.40;0.40;;;;;;;4.66;100.00;99283.44;5033092;23;20024;-64
2024/01/25 00:54:49;;;;;;;0.40;0.40;;;;;;;4.69;100.00;99299.72;5044449;28;20033;-64
2024/01/25 00:57:15;;;;;;;0.50;0.50;;;;;;;4.73;100.00;99310.00;5044257;28;20132;-65
2024/01/25 00:59:40;;;;;;;0.40;0.40;;;;;;;4.74;100.00;99324.56;5026543;28;20036;-65
2024/01/25 01:02:11;;;;;;;0.40;0.40;;;;;;;4.75;100.00;99329.69;5044203;28;20021;-64
2024/01/25 01:04:37;;;;;;;0.40;0.40;;;;;;;4.77;100.00;99334.84;5044575;28;20077;-64
2024/01/25 01:07:03;;;;;;;0.40;0.40;;;;;;;4.77;100.00;99347.69;5044305;28;20029;-64
2024/01/25 01:09:29;;;;;;;0.40;0.40;;;;;;;4.80;100.00;99356.28;5043658;28;20040;-65
2024/01/25 01:11:54;;;;;;;0.40;0.40;;;;;;;4.83;100.00;99365.69;5044004;28;20533;-65
2024/01/25 01:14:19;;;;;;;0.40;0.40;;;;;;;4.84;100.00;99373.41;5081397;23;20080;-63
2024/01/25 01:16:45;;;;;;;0.40;0.40;;;;;;;4.86;100.00;99375.13;5044243;28;20017;-64
2024/01/25 01:19:10;;;;;;;0.40;0.40;;;;;;;4.92;100.00;99381.09;5026571;28;20365;-64
2024/01/25 01:21:36;;;;;;;0.50;0.50;;;;;;;4.92;100.00;99375.94;5025794;28;20045;-63
2024/01/25 01:24:01;;;;;;;0.40;0.40;;;;;;;4.99;100.00;99386.22;5044174;28;20021;-64
2024/01/25 01:26:27;;;;;;;0.40;0.40;;;;;;;4.95;100.00;99381.09;5029476;28;20073;-63
2024/01/25 01:28:52;;;;;;;0.40;0.40;;;;;;;5.04;100.00;99384.50;5047705;28;20087;-63
2024/01/25 01:31:17;;;;;;;0.40;0.40;;;;;;;5.05;100.00;99392.22;5047922;28;20493;-63
2024/01/25 01:33:43;;;;;;;0.40;0.40;;;;;;;5.09;100.00;99408.53;5047616;28;20026;-63
2024/01/25 01:36:08;;;;;;;0.40;0.40;;;;;;;5.09;100.00;99403.38;5047853;28;20022;-64
2024/01/25 01:38:33;;;;;;;0.40;0.40;;;;;;;5.07;100.00;99403.38;5046092;28;20423;-64
2024/01/25 01:40:59;;;;;;;0.40;0.40;;;;;;;5.02;100.00;99393.94;5047613;28;20018;-64
2024/01/25 01:43:24;;;;;;;0.40;0.40;;;;;;;5.08;100.00;99419.66;5047253;28;20033;-64
2024/01/25 01:45:50;;;;;;;0.40;0.40;;;;;;;5.03;100.00;99436.84;5047692;28;20029;-64
2024/01/25 01:48:16;;;;;;;0.40;0.40;;;;;;;5.00;100.00;99441.97;5047586;28;20029;-64
2024/01/25 01:50:45;;;;;;;0.40;0.40;;;;;;;4.97;100.00;99440.25;5029702;28;20044;-64
2024/01/25 01:53:11;;;;;;;0.50;0.50;;;;;;;4.92;100.00;99447.13;5053658;23;20042;-65
2024/01/25 01:55:37;;;;;;;0.40;0.40;;;;;;;4.89;100.00;99453.13;5047633;28;20081;-65
2024/01/25 01:58:03;;;;;;;0.40;0.40;;;;;;;4.91;100.00;99477.13;5042340;23;20050;-64
2024/01/25 02:00:30;;;;;;;0.40;0.40;;;;;;;4.90;100.00;99479.72;5063444;28;20047;-65
2024/01/25 02:02:57;;;;;;;0.40;0.40;;;;;;;4.91;100.00;99497.72;5067646;28;20039;-64
2024/01/25 02:05:23;;;;;;;0.40;0.40;;;;;;;4.94;100.00;99508.00;5067539;28;20340;-65
2024/01/25 02:07:48;;;;;;;0.40;0.40;;;;;;;4.99;100.00;99528.56;5049216;28;20054;-65
2024/01/25 02:10:13;;;;;;;0.40;0.40;;;;;;;4.92;100.00;99519.16;5039952;23;20061;-63
2024/01/25 02:12:39;;;;;;;0.40;0.40;;;;;;;4.95;100.00;99530.28;5027358;28;20022;-63
2024/01/25 02:15:04;;;;;;;0.40;0.40;;;;;;;5.00;100.00;99519.16;5027134;28;20025;-64
2024/01/25 02:17:30;;;;;;;0.40;0.40;;;;;;;4.96;100.00;99532.03;5069637;23;20065;-65
2024/01/25 02:19:55;;;;;;;0.40;0.40;;;;;;;4.92;100.00;99538.00;5066792;28;20553;-64
2024/01/25 02:22:21;;;;;;;0.40;0.40;;;;;;;4.91;100.00;99538.88;5066747;28;20028;-64
2024/01/25 02:24:46;;;;;;;0.40;0.40;;;;;;;4.86;100.00;99548.28;5079930;23;20140;-64
2024/01/25 02:27:11;;;;;;;0.40;0.40;;;;;;;4.84;100.00;99552.56;5049144;28;20095;-64
2024/01/25 02:29:37;;;;;;;0.40;0.40;;;;;;;4.91;100.00;99579.16;5059985;23;20053;-73
2024/01/25 02:32:03;;;;;;;0.40;0.40;;;;;;;4.90;100.00;99577.44;5066574;28;20028;-72
2024/01/25 02:34:28;;;;;;;0.40;0.40;;;;;;;4.90;100.00;99583.47;5067518;28;20028;-72
2024/01/25 02:36:53;;;;;;;0.40;0.40;;;;;;;4.84;100.00;99586.88;5065564;28;20029;-74
2024/01/25 02:39:19;;;;;;;0.50;0.50;;;;;;;4.89;100.00;99596.31;5066645;28;20421;-74
2024/01/25 02:41:44;;;;;;;0.40;0.40;;;;;;;4.86;100.00;99607.44;5066481;28;20052;-72
2024/01/25 02:44:11;;;;;;;0.40;0.40;;;;;;;4.85;100.00;99616.03;5078970;23;20102;-65
2024/01/25 02:46:37;;;;;;;0.50;0.50;;;;;;;4.73;100.00;99613.44;5074625;22;20029;-64
2024/01/25 02:49:03;;;;;;;1.05;1.05;;;;;;;4.68;100.00;99619.38;5046860;28;20057;-64
2024/01/25 02:51:28;;;;;;;0.50;0.50;;;;;;;4.55;100.00;99605.63;5046907;28;20020;-63
2024/01/25 02:53:53;;;;;;;0.40;0.40;;;;;;;4.41;100.00;99621.00;5046375;28;20040;-64
2024/01/25 02:56:19;;;;;;;0.40;0.40;;;;;;;4.34;100.00;99632.13;5046303;28;20029;-63
2024/01/25 02:58:44;;;;;;;0.50;0.50;;;;;;;4.26;100.00;99644.06;5028407;28;20116;-62
2024/01/25 03:01:10;;;;;;;0.40;0.40;;;;;;;4.18;100.00;99654.31;5058564;23;20060;-65
2024/01/25 03:03:35;;;;;;;0.40;0.40;;;;;;;4.11;100.00;99668.81;5066233;28;20021;-64
2024/01/25 03:06:02;;;;;;;0.40;0.40;;;;;;;4.04;100.00;99677.34;5066191;28;20020;-65
2024/01/25 03:08:27;;;;;;;3.55;3.35;;;;;;;3.95;100.00;99678.13;5065875;28;20028;-65
2024/01/25 03:10:53;;;;;;;0.40;0.40;;;;;;;3.94;100.00;99696.97;5064694;28;20021;-65
2024/01/25 03:13:18;;;;;;;0.40;0.40;;;;;;;3.91;100.00;99702.09;5066261;28;20148;-72
2024/01/25 03:15:44;;;;;;;0.40;0.40;;;;;;;3.91;100.00;99720.06;5078458;23;20107;-72
2024/01/25 03:18:10;;;;;;;4.68;4.03;;;;;;;3.86;100.00;99714.03;5057587;23;20098;-64
2024/01/25 03:20:35;;;;;;;0.50;0.50;;;;;;;3.79;100.00;99720.81;5075449;22;20079;-64
2024/01/25 03:23:01;;;;;;;0.40;0.40;;;;;;;3.80;100.00;99722.56;5065532;28;20021;-64
2024/01/25 03:25:26;;;;;;;0.40;0.40;;;;;;;3.76;100.00;99733.63;5066005;28;20068;-64
2024/01/25 03:27:52;;;;;;;0.50;0.50;;;;;;;3.65;100.00;99739.53;5072241;23;20049;-63
2024/01/25 03:30:17;;;;;;;0.50;0.50;;;;;;;3.61;100.00;99742.06;5065622;28;20025;-63
2024/01/25 03:32:42;;;;;;;0.40;0.40;;;;;;;3.53;100.00;99758.22;5072218;23;20087;-63
2024/01/25 03:35:08;;;;;;;0.50;0.50;;;;;;;3.49;100.00;99765.88;5065429;28;20083;-64
2024/01/25 03:37:33;;;;;;;0.40;0.40;;;;;;;3.42;100.00;99772.69;5065401;28;20036;-64
2024/01/25 03:39:59;;;;;;;0.40;0.40;;;;;;;3.32;100.00;99790.53;5047318;28;20028;-64
2024/01/25 03:42:24;;;;;;;0.50;0.50;;;;;;;3.18;100.00;99799.78;5065148;28;20017;-64
2024/01/25 03:44:50;;;;;;;0.50;0.50;;;;;;;3.10;100.00;99804.78;5047457;28;20028;-64
2024/01/25 03:47:15;;;;;;;0.50;0.50;;;;;;;2.94;100.00;99794.34;5049805;23;20072;-64
2024/01/25 03:49:41;;;;;;;0.40;0.40;;;;;;;2.88;100.00;99824.16;5045449;28;20080;-64
2024/01/25 03:52:06;;;;;;;0.40;0.40;;;;;;;2.78;100.00;99831.72;5045034;28;20056;-63
2024/01/25 03:54:31;;;;;;;0.52;0.52;;;;;;;2.71;100.00;99846.19;5045266;28;20064;-64
2024/01/25 03:56:57;;;;;;;0.50;0.50;;;;;;;2.65;100.00;99845.22;5045072;28;20105;-63
2024/01/25 03:59:22;;;;;;;0.50;0.50;;;;;;;2.54;100.00;99858.72;5044960;28;20025;-64
2024/01/25 04:01:48;;;;;;;0.40;0.40;;;;;;;2.47;100.00;99867.16;5045034;28;20076;-63
2024/01/25 04:04:15;;;;;;;0.50;0.50;;;;;;;2.41;100.00;99867.91;5056046;22;20014;-63
2024/01/25 04:06:45;;;;;;;0.40;0.40;;;;;;;2.36;100.00;99874.69;5041989;28;20033;-63
2024/01/25 04:09:11;;;;;;;0.40;0.40;;;;;;;2.28;100.00;99887.38;5044925;28;20040;-65
2024/01/25 04:11:37;;;;;;;0.50;0.50;;;;;;;2.20;100.00;99887.22;5044979;28;20030;-63
2024/01/25 04:14:04;;;;;;;0.50;0.50;;;;;;;2.16;100.00;99894.81;5045083;28;20033;-63
2024/01/25 04:16:29;;;;;;;0.50;0.50;;;;;;;2.13;100.00;99905.00;5044770;28;20374;-63
2024/01/25 04:18:55;;;;;;;0.40;0.40;;;;;;;2.04;100.00;99919.38;5045012;28;20025;-64
2024/01/25 04:21:20;;;;;;;0.50;0.50;;;;;;;2.04;100.00;99931.31;5041019;23;20045;-65
2024/01/25 04:23:45;;;;;;;0.50;0.50;;;;;;;1.98;100.00;99925.22;5044401;28;20375;-64
2024/01/25 04:26:11;;;;;;;0.50;0.50;;;;;;;1.89;100.00;99944.66;5044836;28;20021;-64
2024/01/25 04:28:36;;;;;;;0.40;0.40;;;;;;;1.85;100.00;99954.84;5069240;23;20144;-64
2024/01/25 04:33:27;;;;;;;0.50;0.50;;;;;;;1.73;100.00;99990.44;5069141;22;20075;-64
2024/01/25 04:35:52;;;;;;;0.50;0.50;;;;;;;1.75;100.00;100000.69;5064700;28;20451;-64
2024/01/25 04:38:17;;;;;;;0.50;0.50;;;;;;;1.63;100.00;100012.41;5064883;28;20044;-63
2024/01/25 04:40:43;;;;;;;0.50;0.50;;;;;;;1.61;100.00;100026.88;5064656;28;20025;-64
2024/01/25 04:43:08;;;;;;;0.50;0.50;;;;;;;1.54;100.00;100013.06;5046438;28;20082;-64
2024/01/25 04:45:34;;;;;;;0.50;0.50;;;;;;;1.44;100.00;100009.44;5076879;23;20413;-64
2024/01/25 04:47:59;;;;;;;0.50;0.50;;;;;;;1.47;100.00;100032.53;5064538;28;20504;-64
2024/01/25 04:50:24;;;;;;;0.93;0.93;;;;;;;1.42;100.00;100023.88;5064567;28;20032;-64
2024/01/25 04:52:50;;;;;;;0.60;0.60;;;;;;;1.42;100.00;100052.03;5070325;23;20055;-64
2024/01/25 04:55:15;;;;;;;0.50;0.50;;;;;;;1.41;100.00;100057.97;5077131;23;20061;-64
2024/01/25 04:57:41;;;;;;;0.50;0.50;;;;;;;1.39;100.00;100064.75;5070481;23;20045;-64
2024/01/25 05:00:06;;;;;;;0.50;0.50;;;;;;;1.32;100.00;100056.09;5065048;28;20017;-63
2024/01/25 05:02:32;;;;;;;0.47;0.47;;;;;;;1.26;100.00;100075.53;5078661;22;20045;-64
2024/01/25 05:04:57;;;;;;;0.50;0.50;;;;;;;1.26;100.00;100080.63;5068656;28;20503;-64
2024/01/25 05:07:22;;;;;;;0.40;0.40;;;;;;;1.17;100.00;100073.59;5074997;22;20563;-62
2024/01/25 05:09:48;;;;;;;0.50;0.50;;;;;;;1.09;100.00;100091.31;5068475;28;20054;-65
2024/01/25 05:12:13;;;;;;;0.45;0.45;;;;;;;1.07;100.00;100095.53;5068202;28;20366;-65
2024/01/25 05:14:39;;;;;;;0.50;0.50;;;;;;;0.98;100.00;100094.47;5068173;28;20424;-64
2024/01/25 05:17:04;;;;;;;0.57;0.57;;;;;;;0.99;100.00;100114.09;5068009;28;20406;-65
2024/01/25 05:19:30;;;;;;;0.40;0.40;;;;;;;0.94;100.00;100113.09;5068198;28;20051;-64
2024/01/25 05:21:55;;;;;;;0.45;0.45;;;;;;;0.89;100.00;100108.69;5050127;28;20021;-64
2024/01/25 05:24:20;;;;;;;0.40;0.40;;;;;;;0.83;100.00;100112.81;5073430;23;20091;-64
2024/01/25 05:26:46;;;;;;;0.40;0.40;;;;;;;0.83;100.00;100119.63;5048764;28;20032;-64
2024/01/25 05:29:11;;;;;;;0.40;0.40;;;;;;;0.77;100.00;100132.25;5060472;22;1173834;-64
2024/01/25 05:31:37;;;;;;;0.40;0.40;;;;;;;0.72;100.00;100117.63;5074886;23;20072;-67
2024/01/25 05:34:02;;;;;;;0.40;0.40;;;;;;;0.77;100.00;100137.34;5067927;28;20108;-67
2024/01/25 05:36:28;;;;;;;0.50;0.50;;;;;;;0.72;100.00;100144.88;5067796;28;20043;-61
2024/01/25 05:38:53;;;;;;;0.57;0.57;;;;;;;0.67;100.00;100154.13;5067930;28;20031;-66
2024/01/25 05:41:18;;;;;;;0.50;0.50;;;;;;;0.63;100.00;100162.50;5067583;28;20351;-66
2024/01/25 05:43:44;;;;;;;0.40;0.40;;;;;;;0.61;100.00;100170.13;5066819;28;20032;-66
2024/01/25 05:46:09;;;;;;;0.50;0.50;;;;;;;0.48;100.00;100157.00;5066399;28;20029;-65
2024/01/25 05:48:35;;;;;;;0.40;0.40;;;;;;;0.65;100.00;100187.28;5066540;28;20525;-66
2024/01/25 05:51:00;;;;;;;0.50;0.50;;;;;;;0.66;100.00;100196.69;5067784;28;20435;-66
2024/01/25 05:53:25;;;;;;;0.50;0.50;;;;;;;0.68;100.00;100206.94;5067110;28;20049;-65
2024/01/25 05:55:51;;;;;;;0.50;0.50;;;;;;;0.68;100.00;100222.28;5087020;22;20056;-64
2024/01/25 05:58:16;;;;;;;0.60;0.60;;;;;;;0.63;100.00;100213.59;5067941;28;20029;-64
2024/01/25 06:00:42;;;;;;;0.45;0.45;;;;;;;0.63;100.00;100231.47;5067066;28;20017;-66
2024/01/25 06:03:08;;;;;;;0.63;0.63;;;;;;;0.58;100.00;100239.00;5059891;23;20145;-64
2024/01/25 06:05:33;;;;;;;0.50;0.50;;;;;;;0.59;100.00;100251.00;5065878;28;20029;-64
2024/01/25 06:07:58;;;;;;;0.75;0.75;;;;;;;0.59;100.00;100256.94;5067417;28;20092;-64
2024/01/25 06:10:24;;;;;;;0.50;0.50;;;;;;;0.45;100.00;100246.31;5067164;28;20033;-64
2024/01/25 06:15:18;;;;;;;0.40;0.40;;;;;;;0.47;100.00;100264.25;5075965;22;20057;-62
2024/01/25 06:17:43;;;;;;;0.50;0.50;;;;;;;0.45;100.00;100266.75;5025614;23;20057;-66
2024/01/25 06:20:10;;;;;;;0.40;0.40;;;;;;;0.43;100.00;100273.50;5006954;28;20053;-66
2024/01/25 06:22:35;;;;;;;0.50;0.50;;;;;;;0.46;100.00;100293.16;5006904;28;20030;-65
2024/01/25 06:25:01;;;;;;;0.50;0.50;;;;;;;0.46;100.00;100296.56;5045138;23;20060;-63
2024/01/25 06:27:26;;;;;;;0.50;0.50;;;;;;;0.42;100.00;100297.31;5077586;22;20099;-63
2024/01/25 06:29:51;;;;;;;0.50;0.50;;;;;;;0.33;100.00;100299.56;5073196;23;20052;-63
2024/01/25 06:32:17;;;;;;;2.38;1.25;;;;;;;0.26;100.00;100295.09;5093808;22;20053;-64
2024/01/25 06:34:42;;;;;;;0.40;0.40;;;;;;;0.38;100.00;100320.16;5064918;28;20204;-63
2024/01/25 06:37:08;;;;;;;0.50;0.50;;;;;;;0.41;100.00;100320.25;5048947;28;20025;-65
2024/01/25 06:39:34;;;;;;;0.50;0.50;;;;;;;0.39;100.00;100332.09;5066790;28;20060;-62
2024/01/25 06:41:59;;;;;;;0.77;0.77;;;;;;;0.27;100.00;100325.78;5066491;28;20029;-62
2024/01/25 06:44:25;;;;;;;0.50;0.50;;;;;;;0.35;100.00;100328.59;5066586;28;20554;-62
2024/01/25 06:46:50;;;;;;;0.45;0.45;;;;;;;0.37;100.00;100339.72;5066560;28;20025;-63
2024/01/25 06:49:15;;;;;;;0.50;0.50;;;;;;;0.41;100.00;100359.44;5048731;28;20033;-63
2024/01/25 06:51:41;;;;;;;0.40;0.40;;;;;;;0.40;100.00;100359.38;5066308;28;20024;-63
2024/01/25 06:54:06;;;;;;;0.50;0.50;;;;;;;0.36;100.00;100363.53;5048517;28;20025;-63
2024/01/25 06:56:33;;;;;;;0.50;0.50;;;;;;;0.45;100.00;100373.16;5066405;28;20031;-63
2024/01/25 06:58:58;;;;;;;0.60;0.60;;;;;;;0.44;100.00;100382.53;5066449;28;20028;-63
2024/01/25 07:01:24;;;;;;;0.40;0.40;;;;;;;0.43;100.00;100380.78;5066398;28;20017;-63
2024/01/25 07:03:50;;;;;;;0.50;0.50;;;;;;;0.40;100.00;100385.78;5066228;28;20040;-62
2024/01/25 07:06:17;;;;;;;0.50;0.50;;;;;;;0.36;100.00;100391.63;5066545;28;20048;-64
2024/01/25 07:08:43;;;;;;;0.50;0.50;;;;;;;0.34;100.00;100400.91;5066155;28;20491;-62
2024/01/25 07:11:08;;;;;;;0.40;0.40;;;;;;;0.37;100.00;100421.44;5066210;28;20121;-62
2024/01/25 07:13:33;;;;;;;2.42;2.28;;;;;;;0.39;100.00;100427.47;5066130;28;20013;-64
2024/01/25 07:15:58;;;;;;;0.40;0.40;;;;;;;0.39;100.00;100422.38;5048027;28;20033;-63
2024/01/25 07:18:24;;;;;;;0.40;0.40;;;;;;;0.40;100.00;100436.88;5066121;28;20025;-63
2024/01/25 07:20:49;;;;;;;0.45;0.45;;;;;;;0.39;100.00;100436.81;5065925;28;20017;-63
2024/01/25 07:23:15;;;;;;;0.50;0.50;;;;;;;0.33;100.00;100442.59;5065627;28;20474;-62
2024/01/25 07:25:40;;;;;;;0.40;0.40;;;;;;;0.27;100.00;100443.28;5065984;28;20028;-62
2024/01/25 07:28:06;;;;;;;0.50;0.50;;;;;;;0.29;100.00;100456.09;5065485;28;20025;-63
2024/01/25 07:30:31;;;;;;;0.50;0.50;;;;;;;0.30;100.00;100461.25;5065791;28;20108;-64
2024/01/25 07:32:56;;;;;;;0.40;0.40;;;;;;;0.29;100.00;100468.84;5065371;28;20041;-62
2024/01/25 07:35:23;;;;;;;0.50;0.50;;;;;;;0.28;100.00;100469.66;5065924;28;20036;-63
2024/01/25 07:37:48;;;;;;;0.43;0.43;;;;;;;0.26;100.00;100481.53;5047722;28;20480;-63
2024/01/25 07:40:14;;;;;;;0.52;0.52;;;;;;;0.23;100.00;100482.25;5065585;28;20025;-63
2024/01/25 07:42:39;;;;;;;0.40;0.40;;;;;;;0.27;100.00;100484.13;5065236;28;20025;-63
2024/01/25 07:45:05;;;;;;;0.50;0.50;;;;;;;0.26;100.00;100484.91;5065770;28;20032;-64
2024/01/25 07:47:30;;;;;;;0.40;0.40;;;;;;;0.28;100.00;100485.84;5047388;28;20040;-63
2024/01/25 07:49:55;;;;;;;0.50;0.50;;;;;;;0.23;100.00;100489.91;5065505;28;20021;-62
2024/01/25 07:52:21;;;;;;;0.50;0.50;;;;;;;0.28;100.00;100505.41;5065389;28;20073;-63
2024/01/25 07:54:46;;;;;;;0.40;0.40;;;;;;;0.26;100.00;100507.91;5065286;28;20032;-63
2024/01/25 07:57:11;;;;;;;0.50;0.50;;;;;;;0.31;100.00;100513.19;5065477;28;20044;-63
2024/01/25 07:59:37;;;;;;;0.50;0.50;;;;;;;0.35;100.00;100526.09;5065524;28;20025;-63
2024/01/25 08:02:02;;;;;;;0.50;0.50;;;;;;;0.37;100.00;100513.38;5065330;28;20025;-63
2024/01/25 08:04:28;;;;;;;0.50;0.50;;;;;;;0.31;100.00;100508.94;5065153;28;20028;-63
2024/01/25 08:06:53;;;;;;;0.50;0.50;;;;;;;0.35;100.00;100523.56;5065315;28;20027;-63
2024/01/25 08:09:19;;;;;;;0.50;0.50;;;;;;;0.45;100.00;100542.63;5047421;28;20029;-63
2024/01/25 08:11:44;;;;;;;0.50;0.50;;;;;;;0.47;100.00;100548.66;5065276;28;20060;-63
2024/01/25 08:14:11;;;;;;;0.50;0.50;;;;;;;0.63;100.00;100545.75;5065079;28;20503;-63
2024/01/25 08:16:36;;;;;;;0.50;0.50;;;;;;;1.14;100.00;100559.38;5047078;28;20025;-63
2024/01/25 08:19:02;;;;;;;0.50;0.50;;;;;;;1.88;100.00;100563.41;5077982;22;20071;-62
2024/01/25 08:21:27;;;;;;;0.40;0.40;;;;;;;2.60;100.00;100562.84;5071161;23;20041;-61
2024/01/25 08:23:52;;;;;;;1.90;1.80;;;;;;;3.21;100.00;100567.78;5046752;28;20100;-62
2024/01/25 08:26:18;;;;;;;0.50;0.50;;;;;;;3.70;100.00;100579.19;5077239;23;20544;-63
2024/01/25 08:28:44;;;;;;;0.40;0.40;;;;;;;4.11;99.52;100573.19;5071224;23;20045;-65
2024/01/25 08:31:10;;;;;;;0.52;0.52;;;;;;;4.45;98.37;100589.31;5077751;22;20048;-62
2024/01/25 08:33:36;;;;;;;0.77;0.77;;;;;;;4.60;98.07;100595.56;5078604;22;20032;-61
2024/01/25 08:36:01;;;;;;;0.40;0.40;;;;;;;4.82;96.77;100581.41;5045842;28;20029;-63
2024/01/25 08:38:27;;;;;;;0.40;0.40;;;;;;;5.07;96.84;100593.84;5055614;23;20584;-69
2024/01/25 08:40:52;;;;;;;2.55;2.45;;;;;;;5.23;95.96;100600.13;5065583;23;20045;-63
2024/01/25 08:43:18;;;;;;;0.40;0.40;;;;;;;5.14;93.24;100588.00;5064744;28;20405;-63
2024/01/25 08:45:43;;;;;;;0.40;0.40;;;;;;;4.83;93.22;100592.59;5055306;23;20620;-62
2024/01/25 08:48:09;;;;;;;0.40;0.40;;;;;;;4.67;92.81;100600.03;5044850;28;20087;-63
2024/01/25 08:50:35;;;;;;;0.40;0.40;;;;;;;4.45;92.95;100596.16;5044831;28;20077;-63
2024/01/25 08:53:01;;;;;;;0.45;0.45;;;;;;;4.29;92.67;100600.13;5029304;23;20050;-62
2024/01/25 08:55:26;;;;;;;0.73;0.73;;;;;;;4.36;93.83;100609.69;5034301;23;20024;-62
2024/01/25 08:57:51;;;;;;;0.40;0.40;;;;;;;4.77;94.19;100613.06;5026882;28;20037;-62
2024/01/25 09:00:18;;;;;;;0.45;0.45;;;;;;;5.41;94.35;100630.47;5044508;28;20029;-63
2024/01/25 09:02:43;;;;;;;0.40;0.40;;;;;;;5.90;92.70;100624.34;5044710;28;20030;-62
2024/01/25 09:05:09;;;;;;;0.40;0.40;;;;;;;6.15;91.10;100635.03;5044938;28;20024;-62
2024/01/25 09:07:34;;;;;;;0.40;0.40;;;;;;;6.37;90.96;100630.16;5044777;28;20136;-62
2024/01/25 09:10:00;;;;;;;0.32;0.32;;;;;;;6.58;91.66;100628.69;5044988;28;20015;-63
2024/01/25 09:12:26;;;;;;;1.70;1.60;;;;;;;6.77;90.98;100624.56;5044578;28;20052;-63
2024/01/25 09:14:51;;;;;;;0.40;0.40;;;;;;;7.12;91.47;100636.13;5044604;28;20056;-63
2024/01/25 09:17:21;;;;;;;0.40;0.40;;;;;;;7.39;91.25;100634.66;5044487;28;20028;-63
2024/01/25 09:19:48;;;;;;;0.35;0.35;;;;;;;7.63;92.63;100622.78;5050587;23;20049;-62
2024/01/25 09:22:16;;;;;;;0.30;0.30;;;;;;;8.09;94.70;100642.03;5044362;28;20025;-61
2024/01/25 09:24:41;;;;;;;0.30;0.30;;;;;;;8.24;94.94;100636.03;5044205;28;20018;-61
2024/01/25 09:27:07;;;;;;;0.30;0.30;;;;;;;8.18;93.51;100646.38;5044517;28;20056;-64
2024/01/25 09:29:32;;;;;;;0.40;0.40;;;;;;;7.99;92.46;100653.16;5026692;28;20024;-62
2024/01/25 09:31:58;;;;;;;0.30;0.30;;;;;;;8.11;93.79;100654.97;5044266;28;20022;-61
2024/01/25 09:34:23;;;;;;;0.40;0.40;;;;;;;8.41;93.29;100648.22;5044337;28;20485;-61
2024/01/25 09:36:49;;;;;;;0.30;0.30;;;;;;;8.91;93.10;100669.97;5044504;28;20017;-61
2024/01/25 09:39:14;;;;;;;0.40;0.40;;;;;;;9.18;92.65;100676.09;5044312;28;20099;-62
2024/01/25 09:41:40;;;;;;;0.75;0.70;;;;;;;9.36;89.18;100666.59;5044331;28;20022;-62
2024/01/25 09:44:08;;;;;;;0.30;0.30;;;;;;;8.74;85.92;100669.09;5044294;28;20092;-61
2024/01/25 09:46:35;;;;;;;2.53;2.08;;;;;;;8.52;86.84;100677.59;5045743;28;20466;-62
2024/01/25 09:49:00;;;;;;;5.10;3.22;;;;;;;8.14;86.26;100681.72;5047610;28;20029;-61
2024/01/25 09:51:27;;;;;;;2.40;2.15;;;;;;;8.35;87.96;100674.06;5055450;23;20057;-63
2024/01/25 09:53:53;;;;;;;6.10;3.33;;;;;;;8.57;88.50;100687.13;5032205;23;20517;-61
2024/01/25 09:56:20;;;;;;;4.65;3.15;;;;;;;8.59;88.73;100691.47;5036011;23;20105;-63
2024/01/25 09:58:47;;;;;;;2.70;2.33;;;;;;;8.79;89.65;100688.06;5052573;23;20128;-62
2024/01/25 10:01:15;;;;;;;2.45;2.25;;;;;;;8.85;89.73;100688.09;5047507;28;20048;-61
2024/01/25 10:03:44;;;;;;;5.65;3.20;;;;;;;9.31;90.67;100694.25;5029741;28;20531;-62
2024/01/25 10:06:11;;;;;;;2.97;2.35;;;;;;;9.68;89.18;100706.34;5047689;28;20030;-60
2024/01/25 10:08:36;;;;;;;11.05;3.95;;;;;;;10.37;90.06;100701.09;5047841;28;20029;-61
2024/01/25 10:11:03;;;;;;;2.95;2.20;;;;;;;10.71;89.61;100701.00;5047430;28;20080;-61
2024/01/25 10:13:28;;;;;;;8.18;2.80;;;;;;;10.96;86.83;100689.66;5047520;28;20543;-62
2024/01/25 10:15:54;;;;;;;8.80;3.95;;;;;;;11.22;82.77;100701.59;5047376;28;20029;-63
2024/01/25 10:18:21;;;;;;;2.92;2.35;;;;;;;11.05;77.76;100701.72;5047415;28;20018;-62
2024/01/25 10:20:47;;;;;;;4.60;2.70;;;;;;;11.28;77.98;100717.16;5047287;28;20072;-63
2024/01/25 10:23:12;;;;;;;3.28;2.42;;;;;;;11.80;81.54;100725.47;5052621;23;20046;-63
2024/01/25 10:25:38;;;;;;;3.22;2.30;;;;;;;11.98;78.73;100721.81;5047301;28;20061;-63
2024/01/25 10:28:04;;;;;;;4.55;2.30;;;;;;;12.02;76.03;100725.25;5047288;28;20484;-63
2024/01/25 10:30:35;;;;;;;5.25;2.40;;;;;;;12.09;68.24;100734.75;5047390;28;20022;-63
2024/01/25 10:33:01;;;;;;;6.43;2.90;;;;;;;12.22;73.27;100734.66;5047014;28;20056;-63
2024/01/25 10:35:27;;;;;;;2.25;1.90;;;;;;;12.39;73.94;100737.09;5047131;28;20025;-64
2024/01/25 10:37:52;;;;;;;3.70;3.10;;;;;;;12.30;72.91;100738.03;5046951;28;20412;-64
2024/01/25 10:40:19;;;;;;;2.55;2.33;;;;;;;12.11;77.19;100734.75;5047166;28;20021;-64
2024/01/25 10:42:45;;;;;;;2.50;2.03;;;;;;;11.58;78.85;100738.63;5046981;28;20053;-63
2024/01/25 10:45:11;;;;;;;4.38;2.72;;;;;;;11.23;81.48;100734.53;5047041;28;20091;-63
2024/01/25 10:47:37;;;;;;;2.70;2.25;;;;;;;10.74;81.96;100739.94;5059336;23;20419;-63
2024/01/25 10:50:03;;;;;;;7.40;2.63;;;;;;;10.46;77.10;100744.34;5046890;28;20018;-64
2024/01/25 10:52:30;;;;;;;2.88;2.58;;;;;;;10.13;74.66;100727.09;5046727;28;20029;-63
2024/01/25 10:54:56;;;;;;;3.13;1.73;;;;;;;9.98;77.58;100742.69;5028951;28;20029;-63
2024/01/25 10:57:21;;;;;;;3.80;2.50;;;;;;;9.72;78.91;100751.31;5045927;28;20028;-64
2024/01/25 10:59:47;;;;;;;4.07;2.75;;;;;;;9.35;80.11;100742.63;5046461;28;20535;-62
2024/01/25 11:02:12;;;;;;;5.35;2.80;;;;;;;9.10;77.67;100758.09;5046477;28;20025;-62
2024/01/25 11:04:37;;;;;;;2.88;1.75;;;;;;;8.81;78.01;100764.03;5046616;28;20044;-63
2024/01/25 11:07:11;;;;;;;3.40;2.28;;;;;;;8.90;82.73;100758.88;5046572;28;20148;-63
2024/01/25 11:09:38;;;;;;;3.15;1.92;;;;;;;8.99;81.09;100764.97;5046696;28;20025;-63
2024/01/25 11:12:15;;;;;;;4.55;2.75;;;;;;;9.18;84.47;100773.69;5046476;28;20025;-63
2024/01/25 11:14:41;;;;;;;6.55;1.95;;;;;;;9.48;87.63;100769.44;5046287;28;20029;-62
2024/01/25 11:17:19;;;;;;;3.33;2.47;;;;;;;10.08;87.28;100769.47;5046178;28;20400;-64
2024/01/25 11:19:44;;;;;;;3.70;3.00;;;;;;;10.80;83.14;100784.94;5046351;28;20030;-62
2024/01/25 11:22:11;;;;;;;4.55;1.88;;;;;;;11.34;80.20;100778.66;5046304;28;20028;-64
2024/01/25 11:24:38;;;;;;;4.15;2.35;;;;;;;11.94;75.94;100786.91;5046310;28;20056;-62
2024/01/25 11:27:04;;;;;;;2.38;1.95;;;;;;;12.43;73.16;100780.44;5046231;28;20366;-63
2024/01/25 11:29:30;;;;;;;3.40;1.90;;;;;;;12.91;71.09;100780.78;5046280;28;20041;-63